Terminal Aerodrome Forecast
Issued by NWS

Home | Current Version | Previous Version | Graphics & Text | Print | Product List | Glossary On
Versions: 1 2 3 4 5 6 7 8 9 10 11 12 13 14 15 16 17 18 19 20 21 22 23 24 25 26 27
000
FTUS43 KABR 220531
TAFATY
TAF
KATY 220531Z 2206/2306 36008KT P6SM SCT150
     FM220900 02009KT P6SM VCTS BKN100CB
     FM221100 09006KT P6SM -SHRA VCTS OVC070CB
     FM221500 21006KT 5SM SHRA VCTS OVC060CB
     FM221800 24007KT P6SM BKN080
     FM230300 29006KT P6SM SCT250=

USA.gov is the U.S. government's official web portal to all federal, state and local government web resources and services.